Time;durP1;ratioP1;P1;durP2;ratioP2;P2;SDS_P1;SDS_P2;PMS_P1;PMS_P2;Temp;Humidity;BMP_temperature;BMP_pressure;BME280_temperature;BME280_humidity;BME280_pressure;Samples;Min_cycle;Max_cycle;Signal;HPM_P1;HPM_P2
2021/08/03 00:02:23;;;;;;;10.73;4.00;;;;;;;28.36;45.16;93821.16;4990509;28;20606;-76
2021/08/03 00:04:53;;;;;;;10.05;4.00;;;;;;;28.39;45.22;93809.50;4987051;28;20026;-77
2021/08/03 00:07:19;;;;;;;10.07;5.07;;;;;;;28.44;45.21;93809.81;4989089;28;20046;-77
2021/08/03 00:09:46;;;;;;;13.68;5.22;;;;;;;28.53;45.11;93825.69;4992707;28;20034;-76
2021/08/03 00:12:14;;;;;;;13.85;5.20;;;;;;;28.44;45.06;93814.50;4987274;28;20586;-77
2021/08/03 00:14:47;;;;;;;10.80;4.97;;;;;;;28.56;44.47;93819.44;4988920;28;20050;-77
2021/08/03 00:17:16;;;;;;;9.63;3.88;;;;;;;28.62;44.57;93834.16;4990978;28;20030;-76
2021/08/03 00:19:43;;;;;;;10.48;4.47;;;;;;;28.74;44.27;93836.38;4988797;28;20033;-77
2021/08/03 00:22:09;;;;;;;5.80;3.85;;;;;;;28.69;44.49;93839.50;4992298;28;20022;-76
2021/08/03 00:24:35;;;;;;;9.75;3.70;;;;;;;28.61;44.52;93843.47;4990843;28;20104;-77
2021/08/03 00:27:02;;;;;;;10.85;3.92;;;;;;;28.41;44.58;93828.88;4991653;28;20390;-77
2021/08/03 00:29:28;;;;;;;4.97;3.30;;;;;;;28.47;44.68;93832.72;4989459;28;20046;-77
2021/08/03 00:31:56;;;;;;;11.65;4.22;;;;;;;28.48;44.60;93838.94;4988284;28;20403;-75
2021/08/03 00:34:22;;;;;;;9.13;4.20;;;;;;;28.41;45.27;93837.03;4991509;28;20079;-76
2021/08/03 00:36:47;;;;;;;9.38;4.30;;;;;;;28.23;45.24;93817.38;4989643;28;20034;-76
2021/08/03 00:39:13;;;;;;;7.22;3.88;;;;;;;28.24;45.13;93824.38;4986779;28;20073;-76
2021/08/03 00:41:42;;;;;;;10.63;3.83;;;;;;;28.34;45.12;93839.81;4988428;28;20144;-77
2021/08/03 00:44:08;;;;;;;10.90;4.63;;;;;;;28.07;45.64;93844.22;5004763;28;20970;-77
2021/08/03 00:46:34;;;;;;;8.88;4.13;;;;;;;28.02;45.68;93835.34;4991048;28;20635;-78
2021/08/03 00:49:00;;;;;;;10.57;3.85;;;;;;;27.84;46.02;93834.69;4990604;28;20034;-76
2021/08/03 00:51:25;;;;;;;13.43;4.60;;;;;;;27.40;46.99;93827.09;4986724;28;20073;-76
2021/08/03 00:53:50;;;;;;;4.90;3.90;;;;;;;27.51;46.76;93827.09;4990745;28;20084;-77
2021/08/03 00:56:16;;;;;;;8.25;4.25;;;;;;;27.60;46.45;93829.38;4987238;28;20590;-77
2021/08/03 00:58:42;;;;;;;11.60;3.85;;;;;;;27.58;46.48;93829.75;4989682;28;20177;-76
2021/08/03 01:01:07;;;;;;;16.33;5.15;;;;;;;27.49;46.40;93818.56;4992336;28;20022;-77
2021/08/03 01:03:32;;;;;;;13.18;3.95;;;;;;;27.42;46.51;93819.31;4989606;28;20111;-75
2021/08/03 01:06:10;;;;;;;11.85;4.05;;;;;;;27.55;46.38;93834.03;4983765;28;20042;-78
2021/08/03 01:09:11;;;;;;;7.18;3.72;;;;;;;27.47;46.87;93839.84;4988115;28;20121;-78
2021/08/03 01:11:54;;;;;;;11.23;4.80;;;;;;;27.37;46.91;93843.38;4979735;28;20113;-79
2021/08/03 01:14:22;;;;;;;10.43;4.28;;;;;;;27.30;47.09;93838.00;4990280;28;20064;-76
2021/08/03 01:17:16;;;;;;;5.65;3.65;;;;;;;27.29;47.10;93837.22;4988777;28;20029;-77
2021/08/03 01:19:50;;;;;;;6.38;3.47;;;;;;;27.33;46.99;93848.03;4986822;28;20520;-77
2021/08/03 01:22:47;;;;;;;5.60;3.42;;;;;;;27.19;47.30;93854.28;4987008;28;20042;-76
2021/08/03 01:25:50;;;;;;;6.22;2.90;;;;;;;27.19;47.12;93862.44;5002034;28;20525;-77
2021/08/03 01:28:28;;;;;;;9.63;3.25;;;;;;;27.01;47.57;93842.72;4987851;28;20050;-79
2021/08/03 01:31:04;;;;;;;7.30;3.83;;;;;;;27.29;46.96;93847.28;4987623;28;20112;-76
2021/08/03 01:33:33;;;;;;;7.68;3.95;;;;;;;27.32;47.06;93855.41;4986606;28;20038;-76
2021/08/03 01:36:01;;;;;;;8.20;3.63;;;;;;;27.36;46.83;93850.00;4989220;28;20057;-77
2021/08/03 01:38:29;;;;;;;10.32;2.90;;;;;;;27.41;46.88;93855.00;4988986;28;20596;-78
2021/08/03 01:40:59;;;;;;;8.68;3.55;;;;;;;27.26;47.11;93848.84;4989471;28;20030;-76
2021/08/03 01:43:25;;;;;;;7.20;3.60;;;;;;;27.24;47.09;93831.41;4988690;28;20504;-77
2021/08/03 01:45:53;;;;;;;7.25;4.28;;;;;;;27.36;46.61;93860.84;4988644;28;20592;-76
2021/08/03 01:48:19;;;;;;;4.95;4.05;;;;;;;27.22;46.79;93847.31;4991073;28;20038;-77
2021/08/03 01:50:49;;;;;;;5.85;4.28;;;;;;;27.19;46.42;93837.25;4984793;28;20857;-78
2021/08/03 01:53:18;;;;;;;9.68;4.35;;;;;;;27.33;46.44;93842.63;4988506;28;20042;-77
2021/08/03 01:55:45;;;;;;;7.55;4.50;;;;;;;27.33;46.45;93832.53;4988078;28;20030;-76
2021/08/03 01:58:12;;;;;;;7.55;4.35;;;;;;;27.60;45.92;93841.00;4987832;28;20029;-77
2021/08/03 02:00:39;;;;;;;7.07;4.22;;;;;;;27.55;45.77;93831.34;4989016;28;20098;-77
2021/08/03 02:03:05;;;;;;;6.90;4.40;;;;;;;27.55;45.49;93808.84;4989430;28;20412;-77
2021/08/03 02:05:31;;;;;;;6.43;4.22;;;;;;;27.64;45.35;93808.41;4986268;28;20436;-78
2021/08/03 02:07:56;;;;;;;8.52;4.60;;;;;;;27.71;45.44;93809.13;4990178;28;20034;-77
2021/08/03 02:10:22;;;;;;;7.43;3.85;;;;;;;27.80;45.27;93817.63;4987745;28;20026;-76
2021/08/03 02:12:49;;;;;;;9.55;4.60;;;;;;;27.88;44.91;93831.94;4989764;28;20058;-77
2021/08/03 02:15:14;;;;;;;9.25;4.82;;;;;;;27.92;44.93;93825.31;4986954;28;20046;-78
2021/08/03 02:17:40;;;;;;;7.47;3.85;;;;;;;27.86;44.97;93816.03;4981837;28;20044;-77
2021/08/03 02:20:07;;;;;;;9.65;4.82;;;;;;;27.89;44.94;93817.97;4989553;28;20041;-76
2021/08/03 02:22:33;;;;;;;6.82;4.35;;;;;;;27.96;44.86;93847.00;4985319;28;20034;-75
2021/08/03 02:24:58;;;;;;;7.47;4.20;;;;;;;27.94;45.05;93843.94;4985760;28;20095;-76
2021/08/03 02:27:23;;;;;;;12.15;4.30;;;;;;;27.94;44.94;93854.78;4989854;28;20078;-76
2021/08/03 02:29:49;;;;;;;7.05;4.50;;;;;;;27.80;45.05;93841.28;4985951;28;20041;-78
2021/08/03 02:32:24;;;;;;;8.07;4.57;;;;;;;27.94;44.85;93844.72;4985300;28;20230;-78
2021/08/03 02:34:57;;;;;;;9.90;4.28;;;;;;;27.95;44.84;93846.22;4988575;28;20041;-78
2021/08/03 02:37:31;;;;;;;8.90;4.38;;;;;;;28.10;44.72;93862.47;4986239;28;20160;-77
2021/08/03 02:39:57;;;;;;;7.47;4.43;;;;;;;28.06;44.79;93867.13;4989570;28;20046;-79
2021/08/03 02:42:23;;;;;;;10.98;4.43;;;;;;;27.91;44.92;93872.63;4987847;28;20033;-78
2021/08/03 02:44:53;;;;;;;7.32;4.68;;;;;;;27.90;45.08;93868.41;4990241;28;20080;-77
2021/08/03 02:47:26;;;;;;;9.13;4.30;;;;;;;27.83;45.17;93859.50;4992089;28;20042;-77
2021/08/03 02:49:53;;;;;;;7.35;4.15;;;;;;;27.76;45.33;93865.72;4984112;28;20029;-77
2021/08/03 02:52:20;;;;;;;10.93;5.50;;;;;;;27.82;45.02;93872.31;4988692;28;20492;-78
2021/08/03 02:54:55;;;;;;;9.85;4.75;;;;;;;27.63;45.11;93844.84;4984741;28;20600;-76
2021/08/03 02:57:21;;;;;;;8.40;4.05;;;;;;;27.77;45.28;93872.72;4985157;28;20032;-77
2021/08/03 02:59:54;;;;;;;8.25;4.47;;;;;;;27.69;45.26;93871.22;4985687;28;20496;-77
2021/08/03 03:02:20;;;;;;;9.52;4.45;;;;;;;27.80;45.12;93882.81;4989124;28;20049;-77
2021/08/03 03:05:13;;;;;;;6.35;4.28;;;;;;;27.74;45.36;93881.66;4987488;28;20032;-77
2021/08/03 03:07:42;;;;;;;5.75;3.83;;;;;;;27.86;44.97;93875.00;4986941;28;20454;-77
2021/08/03 03:10:15;;;;;;;9.23;4.18;;;;;;;27.68;44.94;93856.09;4985536;28;20042;-77
2021/08/03 03:12:44;;;;;;;11.85;4.32;;;;;;;27.91;44.80;93886.22;4987306;28;20045;-76
2021/08/03 03:15:14;;;;;;;9.05;4.28;;;;;;;27.91;44.84;93877.28;4985865;28;20053;-77
2021/08/03 03:17:40;;;;;;;7.30;4.15;;;;;;;27.86;44.73;93864.91;4984021;28;20539;-75
2021/08/03 03:20:07;;;;;;;5.95;3.50;;;;;;;28.02;44.69;93894.31;4987273;28;20046;-77
2021/08/03 03:22:38;;;;;;;5.10;3.72;;;;;;;27.92;44.96;93884.28;4989695;28;20038;-75
2021/08/03 03:25:06;;;;;;;13.77;4.07;;;;;;;27.93;44.90;93878.47;4982467;28;20054;-76
2021/08/03 03:27:33;;;;;;;8.32;4.18;;;;;;;28.12;44.56;93898.97;5000959;28;20030;-76
2021/08/03 03:29:59;;;;;;;6.47;4.20;;;;;;;27.98;44.59;93869.13;4986088;28;20056;-76
2021/08/03 03:32:28;;;;;;;5.47;4.28;;;;;;;28.17;44.44;93892.31;4983375;28;20133;-76
2021/08/03 03:34:55;;;;;;;4.75;3.53;;;;;;;27.90;44.63;93860.25;4984656;28;20021;-76
2021/08/03 03:37:23;;;;;;;11.48;4.50;;;;;;;28.02;44.77;93895.09;4984376;28;20145;-76
2021/08/03 03:39:49;;;;;;;9.63;4.32;;;;;;;27.84;44.91;93902.56;4983523;28;20527;-76
2021/08/03 03:42:16;;;;;;;9.13;4.75;;;;;;;27.62;44.78;93860.38;4985565;28;20046;-77
2021/08/03 03:44:41;;;;;;;8.27;4.18;;;;;;;27.85;44.77;93895.97;4988005;28;20029;-76
2021/08/03 03:47:31;;;;;;;6.43;4.65;;;;;;;27.85;44.75;93911.50;4988359;28;20566;-78
2021/08/03 03:50:28;;;;;;;6.80;3.65;;;;;;;27.79;45.13;93913.84;4982503;28;20088;-78
2021/08/03 03:53:01;;;;;;;6.03;3.97;;;;;;;27.65;44.99;93896.84;4987590;28;20041;-76
2021/08/03 03:55:28;;;;;;;6.53;3.90;;;;;;;27.76;44.87;93919.28;4987590;28;20025;-76
2021/08/03 03:57:53;;;;;;;8.75;4.68;;;;;;;27.70;45.30;93913.50;4984406;28;20129;-76
2021/08/03 04:00:19;;;;;;;7.07;3.63;;;;;;;27.66;45.15;93922.81;4982820;28;20048;-76
2021/08/03 04:02:50;;;;;;;13.75;4.68;;;;;;;27.64;45.09;93920.50;4983427;28;20137;-76
2021/08/03 04:05:16;;;;;;;8.52;4.25;;;;;;;27.61;44.96;93918.56;4982801;28;20056;-76
2021/08/03 04:07:49;;;;;;;10.05;4.82;;;;;;;27.71;44.71;93934.03;4986951;28;20050;-76
2021/08/03 04:10:15;;;;;;;10.00;4.75;;;;;;;27.66;44.86;93939.84;4986047;28;20037;-78
2021/08/03 04:12:40;;;;;;;6.72;4.05;;;;;;;27.61;45.54;93940.28;4987993;28;20093;-77
2021/08/03 04:15:07;;;;;;;8.10;5.00;;;;;;;27.48;45.43;93926.31;4984375;28;20039;-76
2021/08/03 04:17:32;;;;;;;8.18;5.50;;;;;;;27.41;45.87;93931.78;4984877;28;20038;-77
2021/08/03 04:19:58;;;;;;;7.75;4.07;;;;;;;27.40;45.67;93926.72;4987515;28;20029;-76
2021/08/03 04:22:24;;;;;;;9.43;4.28;;;;;;;27.36;45.89;93929.47;4984258;28;20038;-76
2021/08/03 04:24:50;;;;;;;6.95;4.32;;;;;;;27.20;46.23;93931.81;4986454;28;20856;-76
2021/08/03 04:27:17;;;;;;;9.73;4.10;;;;;;;27.21;46.44;93938.00;4990722;28;20042;-76
2021/08/03 04:29:43;;;;;;;5.05;3.85;;;;;;;27.17;46.55;93938.03;4991422;28;20030;-76
2021/08/03 04:32:08;;;;;;;9.55;4.38;;;;;;;26.97;46.75;93945.78;4988464;28;20097;-76
2021/08/03 04:34:34;;;;;;;6.07;4.05;;;;;;;27.00;46.95;93938.81;4985494;28;20112;-77
2021/08/03 04:37:00;;;;;;;6.80;4.13;;;;;;;26.95;46.48;93941.91;4988759;28;20029;-77
2021/08/03 04:39:26;;;;;;;16.45;4.20;;;;;;;26.89;46.86;93927.97;4988573;28;20034;-76
2021/08/03 04:41:51;;;;;;;9.27;4.00;;;;;;;27.10;46.79;93949.66;4984347;28;20042;-77
2021/08/03 04:44:16;;;;;;;10.23;4.80;;;;;;;27.21;46.93;93938.00;4986768;28;20040;-78
2021/08/03 04:46:42;;;;;;;10.00;5.07;;;;;;;27.47;45.55;93945.69;4988059;28;20056;-76
2021/08/03 04:49:09;;;;;;;7.25;4.45;;;;;;;27.41;46.07;93948.06;4990628;28;21129;-74
2021/08/03 04:51:34;;;;;;;8.02;4.32;;;;;;;27.25;46.01;93933.34;4990299;28;20591;-76
2021/08/03 04:53:59;;;;;;;6.82;4.07;;;;;;;27.36;45.81;93931.41;4989539;28;20053;-75
2021/08/03 04:56:25;;;;;;;7.95;4.40;;;;;;;27.28;45.90;93929.84;4989361;28;20513;-77
2021/08/03 04:58:50;;;;;;;7.38;5.53;;;;;;;27.39;45.92;93939.53;4990218;28;20037;-76
2021/08/03 05:01:18;;;;;;;7.68;4.45;;;;;;;27.13;45.73;93910.09;4991704;28;20076;-75
2021/08/03 05:03:43;;;;;;;8.38;4.47;;;;;;;27.29;46.08;93936.84;4983424;28;20061;-76
2021/08/03 05:06:09;;;;;;;6.97;5.18;;;;;;;27.49;45.96;93951.56;4990980;28;20576;-77
2021/08/03 05:08:34;;;;;;;8.23;4.97;;;;;;;27.49;45.66;93943.41;4987250;28;20038;-78
2021/08/03 05:10:59;;;;;;;8.15;4.72;;;;;;;27.57;45.76;93950.34;4991570;28;20036;-76
2021/08/03 05:13:25;;;;;;;11.05;5.35;;;;;;;27.60;46.14;93949.59;4988728;28;20702;-78
2021/08/03 05:15:51;;;;;;;7.57;4.25;;;;;;;27.69;46.08;93952.66;4986438;28;20546;-76
2021/08/03 05:18:16;;;;;;;11.25;5.18;;;;;;;27.79;46.05;93951.84;4986894;28;20030;-78
2021/08/03 05:20:43;;;;;;;7.53;4.40;;;;;;;27.94;45.32;93956.06;4987495;28;20056;-76
2021/08/03 05:23:08;;;;;;;8.52;4.38;;;;;;;27.92;44.93;93952.97;4991976;28;20169;-76
2021/08/03 05:25:33;;;;;;;11.82;4.65;;;;;;;27.88;45.18;93960.34;4988894;28;20050;-77
2021/08/03 05:27:59;;;;;;;11.23;5.00;;;;;;;27.98;45.57;93962.25;4991321;28;20042;-75
2021/08/03 05:30:24;;;;;;;9.60;5.07;;;;;;;28.11;44.83;93970.75;4988766;28;20091;-76
2021/08/03 05:32:49;;;;;;;9.20;4.25;;;;;;;28.10;44.73;93949.41;4991244;28;20037;-77
2021/08/03 05:35:15;;;;;;;10.35;6.43;;;;;;;28.32;44.36;93956.31;4983337;28;20042;-77
2021/08/03 05:37:40;;;;;;;9.52;5.03;;;;;;;28.30;44.38;93937.66;4995094;28;20053;-77
2021/08/03 05:40:09;;;;;;;7.65;4.53;;;;;;;28.34;44.55;93949.31;4986350;28;20482;-76
2021/08/03 05:42:36;;;;;;;8.27;4.82;;;;;;;28.49;44.67;93965.53;4986198;28;20121;-77
2021/08/03 05:45:02;;;;;;;10.82;5.70;;;;;;;28.58;43.87;93968.59;4985672;28;20044;-76
2021/08/03 05:47:27;;;;;;;13.90;5.05;;;;;;;28.61;44.44;93965.06;4988881;28;20042;-76
2021/08/03 05:49:53;;;;;;;5.28;4.20;;;;;;;28.72;44.06;93965.78;4986979;28;20612;-79
2021/08/03 05:52:18;;;;;;;11.23;5.20;;;;;;;28.70;44.16;93959.94;4989954;28;20030;-77
2021/08/03 05:54:44;;;;;;;8.65;4.47;;;;;;;28.88;44.66;93970.75;4988867;28;20046;-77
2021/08/03 05:57:09;;;;;;;10.82;5.68;;;;;;;28.82;43.82;93963.00;4986956;28;20584;-77
2021/08/03 05:59:34;;;;;;;12.70;6.10;;;;;;;28.61;44.10;93960.41;4982952;28;20046;-77
2021/08/03 06:02:00;;;;;;;10.60;4.93;;;;;;;28.75;44.59;93976.66;4988863;28;20595;-77
2021/08/03 06:04:26;;;;;;;10.00;5.22;;;;;;;28.80;44.29;93970.78;4985039;28;20034;-75
2021/08/03 06:06:54;;;;;;;9.15;4.97;;;;;;;28.79;44.17;93971.94;4990942;28;20042;-76
2021/08/03 06:09:20;;;;;;;9.02;6.13;;;;;;;28.66;44.05;93934.72;4991404;28;20037;-76
2021/08/03 06:11:48;;;;;;;9.98;4.55;;;;;;;29.01;43.71;93964.41;4983716;28;20038;-76
2021/08/03 06:14:25;;;;;;;9.88;4.20;;;;;;;29.14;43.63;93967.41;4990739;28;20029;-76
2021/08/03 06:16:52;;;;;;;12.77;4.53;;;;;;;29.01;43.42;93964.41;4984505;28;20025;-77
2021/08/03 06:19:19;;;;;;;8.45;4.70;;;;;;;29.08;43.73;93963.56;4985149;28;20030;-78
2021/08/03 06:21:45;;;;;;;12.27;5.18;;;;;;;29.26;43.55;93975.88;4987388;28;20047;-76
2021/08/03 06:24:16;;;;;;;7.18;4.88;;;;;;;29.25;43.38;93962.66;4986991;28;20057;-76
2021/08/03 06:26:43;;;;;;;11.73;5.32;;;;;;;29.30;43.56;93970.38;5004699;28;20077;-77
2021/08/03 06:29:09;;;;;;;8.75;5.82;;;;;;;29.18;43.07;93973.59;4985247;28;20035;-77
2021/08/03 06:31:34;;;;;;;10.93;6.70;;;;;;;29.32;42.88;93983.63;4985792;28;20611;-76
2021/08/03 06:34:01;;;;;;;12.05;6.15;;;;;;;29.38;43.11;93980.03;4989671;28;20084;-76
2021/08/03 06:36:27;;;;;;;10.15;5.22;;;;;;;29.37;43.20;93973.06;4986984;28;20508;-78
2021/08/03 06:38:52;;;;;;;12.73;6.32;;;;;;;29.48;43.38;93984.63;4987139;28;20053;-77
2021/08/03 06:41:32;;;;;;;12.82;7.20;;;;;;;29.47;42.57;93974.16;4987868;28;20779;-76
2021/08/03 06:44:15;;;;;;;12.55;7.00;;;;;;;29.71;42.56;93978.56;4987750;28;20030;-78
2021/08/03 06:46:45;;;;;;;9.77;6.50;;;;;;;29.86;42.33;93982.66;4986865;28;20105;-76
2021/08/03 06:49:13;;;;;;;14.38;6.50;;;;;;;29.84;42.21;93992.44;4985933;28;20040;-75
2021/08/03 06:51:41;;;;;;;8.70;6.35;;;;;;;29.81;42.29;93983.09;4988528;28;20569;-77
2021/08/03 06:54:11;;;;;;;13.55;7.00;;;;;;;29.88;41.78;93995.88;4987623;28;20188;-76
2021/08/03 06:56:48;;;;;;;9.02;6.88;;;;;;;29.82;42.17;94000.22;4987559;28;20057;-76
2021/08/03 06:59:19;;;;;;;9.25;5.72;;;;;;;29.94;42.27;93992.34;4985832;28;20049;-76
2021/08/03 07:01:50;;;;;;;10.23;7.15;;;;;;;29.88;41.97;93993.16;4989315;28;20053;-76
2021/08/03 07:04:24;;;;;;;13.70;6.13;;;;;;;29.84;41.99;93990.50;4989235;28;20400;-76
2021/08/03 07:06:56;;;;;;;8.20;6.03;;;;;;;29.77;42.18;94004.16;4986784;28;20050;-76
2021/08/03 07:09:24;;;;;;;7.45;6.35;;;;;;;29.69;42.29;93984.41;4984534;28;20030;-76
2021/08/03 07:11:52;;;;;;;10.32;6.82;;;;;;;29.88;42.69;94004.84;4986960;28;20035;-75
2021/08/03 07:14:19;;;;;;;11.82;6.47;;;;;;;29.83;42.05;94001.78;4989720;28;20046;-76
2021/08/03 07:16:46;;;;;;;9.23;6.63;;;;;;;29.93;41.83;94007.16;4985867;28;21472;-75
2021/08/03 07:19:11;;;;;;;11.32;7.20;;;;;;;29.97;42.23;94009.81;4985150;28;20030;-76
2021/08/03 07:21:38;;;;;;;14.20;7.85;;;;;;;29.97;41.00;93990.75;4985827;28;20100;-79
2021/08/03 07:24:04;;;;;;;13.75;8.77;;;;;;;30.01;40.67;93994.19;4986662;28;20049;-76
2021/08/03 07:26:30;;;;;;;10.85;8.05;;;;;;;29.94;41.19;94002.47;4985690;28;20057;-78
2021/08/03 07:28:55;;;;;;;10.52;7.38;;;;;;;30.03;40.96;94006.25;4985857;28;20021;-77
2021/08/03 07:31:21;;;;;;;15.07;7.75;;;;;;;30.11;40.30;94012.38;4984608;28;20045;-76
2021/08/03 07:33:46;;;;;;;10.05;7.80;;;;;;;30.07;40.86;94012.44;4982716;28;20042;-77
2021/08/03 07:36:15;;;;;;;12.00;7.95;;;;;;;30.05;40.75;94011.31;4986816;28;20177;-77
2021/08/03 07:38:42;;;;;;;11.23;8.50;;;;;;;30.01;40.08;94005.09;4989502;28;20069;-76
2021/08/03 07:41:08;;;;;;;11.18;8.63;;;;;;;30.16;40.67;94011.94;4985448;28;20034;-77
2021/08/03 07:43:33;;;;;;;12.52;8.57;;;;;;;30.37;39.94;94017.16;4985707;28;20042;-76
2021/08/03 07:45:58;;;;;;;13.40;8.45;;;;;;;30.33;40.01;94005.50;4982673;28;20038;-77
2021/08/03 07:48:24;;;;;;;13.20;7.70;;;;;;;30.15;40.04;93974.22;4986153;28;20392;-77
2021/08/03 07:50:49;;;;;;;13.57;7.00;;;;;;;30.37;39.79;94000.78;4987171;28;20045;-77
2021/08/03 07:53:15;;;;;;;10.30;6.95;;;;;;;30.48;40.24;93998.72;4986114;28;20084;-78
2021/08/03 07:55:40;;;;;;;9.35;7.50;;;;;;;30.49;39.89;93994.81;4987605;28;20121;-77
2021/08/03 07:58:06;;;;;;;14.52;8.10;;;;;;;30.54;40.25;93979.97;4988235;28;20513;-77
2021/08/03 08:00:32;;;;;;;13.70;8.50;;;;;;;30.73;40.02;93989.44;4985965;28;20088;-77
2021/08/03 08:02:58;;;;;;;11.02;7.72;;;;;;;30.82;39.91;93984.22;4993112;28;20030;-77
2021/08/03 08:05:24;;;;;;;12.15;8.43;;;;;;;30.83;39.41;93967.44;4986827;28;20567;-75
2021/08/03 08:07:49;;;;;;;13.25;8.77;;;;;;;31.05;38.37;93994.41;4987806;28;20053;-77
2021/08/03 08:10:14;;;;;;;13.15;8.27;;;;;;;30.94;39.06;93989.09;4989591;28;20029;-77
2021/08/03 08:12:40;;;;;;;11.90;7.05;;;;;;;30.88;39.04;93979.84;4983666;28;20073;-77
2021/08/03 08:15:06;;;;;;;13.68;8.82;;;;;;;30.85;38.20;93983.38;4983278;28;20473;-77
2021/08/03 08:17:33;;;;;;;13.70;8.40;;;;;;;30.96;38.23;93984.78;4986314;28;20050;-77
2021/08/03 08:19:59;;;;;;;13.18;8.82;;;;;;;31.01;38.24;93980.81;4991119;28;20814;-77
2021/08/03 08:22:24;;;;;;;11.98;8.32;;;;;;;31.03;37.06;93973.03;4994288;28;20029;-77
2021/08/03 08:24:50;;;;;;;12.52;8.50;;;;;;;31.08;36.86;93991.66;4991213;28;20053;-80
2021/08/03 08:27:17;;;;;;;12.25;8.15;;;;;;;31.02;36.80;93987.84;4996660;28;20034;-76
2021/08/03 08:29:42;;;;;;;10.90;8.15;;;;;;;30.92;36.67;93950.53;4989359;28;20034;-77
2021/08/03 08:32:07;;;;;;;10.95;9.13;;;;;;;31.18;35.84;93995.41;4988120;28;20049;-77
2021/08/03 08:34:33;;;;;;;14.52;7.13;;;;;;;31.07;32.59;93979.19;4986156;28;20030;-77
2021/08/03 08:36:58;;;;;;;10.10;7.30;;;;;;;31.19;33.69;93986.78;4989360;28;20073;-78
2021/08/03 08:39:24;;;;;;;11.10;8.60;;;;;;;31.24;34.15;93986.31;4990130;28;20053;-77
2021/08/03 08:41:49;;;;;;;11.02;7.35;;;;;;;31.30;33.90;93986.59;4987295;28;20104;-77
2021/08/03 08:44:15;;;;;;;12.38;7.97;;;;;;;31.41;33.89;93981.75;4990656;28;20026;-78
2021/08/03 08:46:41;;;;;;;15.18;8.70;;;;;;;31.37;33.02;93970.88;4988062;28;20030;-77
2021/08/03 08:49:07;;;;;;;9.95;7.65;;;;;;;31.49;33.00;93966.78;4987776;28;20030;-77
2021/08/03 08:51:33;;;;;;;11.60;8.57;;;;;;;31.47;33.76;93962.94;4990385;28;20046;-76
2021/08/03 08:54:01;;;;;;;11.05;7.82;;;;;;;31.29;34.29;93972.19;4990230;28;20562;-77
2021/08/03 08:56:28;;;;;;;12.43;7.93;;;;;;;31.31;33.81;93964.34;4988540;28;20052;-77
2021/08/03 08:58:53;;;;;;;11.05;7.95;;;;;;;31.34;33.31;93965.47;4989206;28;20997;-77
2021/08/03 09:01:19;;;;;;;14.15;7.43;;;;;;;31.37;34.23;93962.66;4987410;28;20439;-78
2021/08/03 09:03:45;;;;;;;15.98;7.07;;;;;;;31.46;34.42;93969.56;4990578;28;20066;-77
2021/08/03 09:06:10;;;;;;;11.55;7.35;;;;;;;31.72;33.49;93979.66;4988704;28;20456;-77
2021/08/03 09:08:38;;;;;;;13.80;7.95;;;;;;;31.74;34.23;93977.28;4992488;28;20382;-77
2021/08/03 09:11:09;;;;;;;9.63;7.38;;;;;;;31.75;33.06;93978.81;4989622;28;20056;-79
2021/08/03 09:13:48;;;;;;;12.45;6.82;;;;;;;31.74;32.67;93961.66;4989149;28;20061;-77
2021/08/03 09:16:14;;;;;;;10.10;6.55;;;;;;;31.89;31.41;93978.56;4991291;28;20084;-77
2021/08/03 09:18:42;;;;;;;8.45;6.90;;;;;;;31.94;31.04;93969.88;4989254;28;20124;-78
2021/08/03 09:21:19;;;;;;;12.45;7.25;;;;;;;31.99;32.29;93976.81;4986226;28;20033;-77
2021/08/03 09:23:50;;;;;;;9.88;6.57;;;;;;;32.03;31.49;93963.84;4990317;28;20034;-78
2021/08/03 09:26:16;;;;;;;10.57;6.72;;;;;;;31.99;32.75;93954.94;4990968;28;20586;-78
2021/08/03 09:29:04;;;;;;;8.52;5.25;;;;;;;32.02;28.94;93965.78;4986828;28;20030;-77
2021/08/03 09:31:32;;;;;;;9.90;5.53;;;;;;;31.95;29.02;93946.81;4989269;28;20436;-75
2021/08/03 09:33:58;;;;;;;11.20;5.95;;;;;;;32.00;28.92;93954.53;4986133;28;20045;-79
2021/08/03 09:36:46;;;;;;;6.60;5.28;;;;;;;31.92;29.48;93952.34;4986324;28;20045;-76
2021/08/03 09:39:45;;;;;;;6.30;5.43;;;;;;;32.02;29.50;93943.16;4987708;28;20057;-77
2021/08/03 09:42:14;;;;;;;6.63;5.25;;;;;;;31.95;30.38;93952.28;4988527;28;20042;-78
2021/08/03 09:44:59;;;;;;;11.70;6.30;;;;;;;32.06;31.27;93947.34;4989271;28;20036;-77
2021/08/03 09:47:26;;;;;;;7.88;6.15;;;;;;;31.94;29.37;93919.91;4988037;28;20042;-77
2021/08/03 09:49:54;;;;;;;9.82;5.65;;;;;;;32.27;29.47;93948.91;4984757;28;20377;-77
2021/08/03 09:52:22;;;;;;;10.57;5.63;;;;;;;32.24;29.41;93936.88;4988160;28;20442;-78
2021/08/03 09:54:48;;;;;;;10.18;6.32;;;;;;;32.24;28.54;93939.59;4985533;28;20149;-78
2021/08/03 09:57:25;;;;;;;9.20;6.30;;;;;;;32.27;29.57;93937.19;4988491;28;20041;-77
2021/08/03 09:59:54;;;;;;;8.65;5.32;;;;;;;32.42;29.41;93943.91;4990395;28;20041;-78
2021/08/03 10:02:23;;;;;;;12.05;6.45;;;;;;;32.36;29.75;93926.44;4988726;28;20042;-78
2021/08/03 10:04:50;;;;;;;9.68;6.15;;;;;;;32.55;29.29;93937.34;4989460;28;20112;-77
2021/08/03 10:07:15;;;;;;;13.05;6.18;;;;;;;32.83;28.75;93952.41;4994810;28;20026;-77
2021/08/03 10:09:45;;;;;;;8.88;6.03;;;;;;;32.74;29.01;93949.50;4987642;28;20030;-78
2021/08/03 10:12:11;;;;;;;8.65;5.85;;;;;;;32.54;28.83;93929.59;4985886;28;20092;-77
2021/08/03 10:14:38;;;;;;;9.80;5.72;;;;;;;32.42;29.46;93911.09;4988404;28;20026;-77
2021/08/03 10:17:04;;;;;;;7.82;6.00;;;;;;;32.48;28.54;93931.28;4987544;28;20452;-78
2021/08/03 10:19:36;;;;;;;9.52;5.60;;;;;;;32.67;29.26;93938.69;4988689;28;20030;-78
2021/08/03 10:22:19;;;;;;;7.70;5.40;;;;;;;32.87;27.44;93928.44;4988247;28;20038;-77
2021/08/03 10:25:03;;;;;;;8.13;4.72;;;;;;;32.88;26.42;93927.25;4989524;28;20061;-77
2021/08/03 10:27:45;;;;;;;6.07;4.50;;;;;;;32.82;26.39;93918.00;4990512;28;20658;-78
2021/08/03 10:30:29;;;;;;;9.60;4.63;;;;;;;32.80;26.60;93920.41;4986949;28;20038;-77
2021/08/03 10:32:59;;;;;;;9.82;6.05;;;;;;;32.70;27.78;93921.41;4990133;28;20090;-78
2021/08/03 10:35:37;;;;;;;7.72;4.60;;;;;;;32.79;26.05;93923.56;4983358;28;20559;-78
2021/08/03 10:38:02;;;;;;;6.60;5.45;;;;;;;32.80;27.04;93925.88;4985611;28;20078;-78
2021/08/03 10:40:49;;;;;;;7.75;5.40;;;;;;;32.88;26.25;93924.53;4984816;28;20025;-77
2021/08/03 10:43:20;;;;;;;7.05;4.43;;;;;;;32.59;26.40;93926.34;4984319;28;20120;-77
2021/08/03 10:45:47;;;;;;;10.57;5.38;;;;;;;32.60;26.77;93923.16;4984973;28;20041;-78
2021/08/03 10:48:38;;;;;;;9.48;4.82;;;;;;;32.77;26.43;93932.19;4987154;28;20042;-77
2021/08/03 10:51:12;;;;;;;10.10;4.93;;;;;;;33.03;26.61;93922.97;4998061;28;20046;-77
2021/08/03 10:54:13;;;;;;;6.35;4.50;;;;;;;33.12;26.45;93925.09;4986829;28;20030;-77
2021/08/03 10:56:57;;;;;;;9.77;5.60;;;;;;;33.25;26.17;93916.97;4983767;28;20046;-78
2021/08/03 10:59:37;;;;;;;6.32;5.35;;;;;;;33.30;25.98;93913.72;4977387;28;20045;-78
2021/08/03 11:02:04;;;;;;;7.70;5.50;;;;;;;33.15;26.55;93913.28;4986085;28;20076;-78
2021/08/03 11:04:42;;;;;;;11.20;5.00;;;;;;;33.28;26.81;93922.38;4981400;28;20058;-78
2021/08/03 11:07:26;;;;;;;8.65;4.75;;;;;;;33.40;26.16;93907.97;4979245;28;20054;-77
2021/08/03 11:09:57;;;;;;;6.57;5.25;;;;;;;33.01;25.93;93883.53;4982663;28;20083;-77
2021/08/03 11:12:48;;;;;;;7.78;5.53;;;;;;;33.32;26.44;93914.06;4987043;28;20053;-78
2021/08/03 11:15:20;;;;;;;9.57;5.15;;;;;;;33.49;25.99;93905.38;4985895;28;20038;-78
2021/08/03 11:17:50;;;;;;;10.60;5.53;;;;;;;33.38;26.94;93895.94;4985229;28;20091;-77
2021/08/03 11:20:33;;;;;;;7.88;4.97;;;;;;;33.53;25.75;93905.28;4982728;28;20037;-78
2021/08/03 11:22:59;;;;;;;6.47;5.03;;;;;;;33.55;26.67;93891.94;4985753;28;20334;-77
2021/08/03 11:25:26;;;;;;;6.90;4.80;;;;;;;33.68;26.41;93890.03;4987247;28;20053;-77
2021/08/03 11:27:52;;;;;;;12.57;4.70;;;;;;;33.74;25.61;93904.75;4984997;28;20061;-77
2021/08/03 11:30:18;;;;;;;8.32;4.97;;;;;;;33.69;25.47;93899.78;4988844;28;20497;-77
2021/08/03 11:32:47;;;;;;;9.45;5.32;;;;;;;33.53;25.86;93899.81;4981033;28;20038;-78
2021/08/03 11:35:24;;;;;;;7.50;4.75;;;;;;;33.71;25.65;93889.19;4986703;28;20037;-77
2021/08/03 11:37:50;;;;;;;11.63;5.13;;;;;;;33.58;25.12;93882.84;4982961;28;20895;-78
2021/08/03 11:40:15;;;;;;;9.57;5.40;;;;;;;33.67;24.50;93887.72;4986791;28;20554;-77